»·PEaware :: N286WF KSBP-KMHV

N286WF :: KSBP-KMHV

FLIGHT INFORMATION

Flight Status: Arrived
Operator: Privately registered:
United States
More flights under this callsign
Pilot: Frank W. (16848)
Aircraft: Unknown
(P28U)
More flights by this aircraft type
Origin: KSBP San Luis Co Regl
United States
Destination: KMHV Mojave
United States
More flights between these airports :: More routes between these airports
Route: KSBP FLW GMN KMHV
File this flight plan on PilotEdge
Remarks:
Altitude:
(Current/Filed)
7,500ft
Speed:
(Current/Filed)
140kts
Departed: 30-Oct-19 04:04 PM
Arrived: 30-Oct-19 05:15 PM
Distance/Time
Traveled:
123nm/1:11
Distance/Time
To Go:
Arrived

Flight Plot

Page will automatically refresh every two minutes.


Map Options




Map Legend


Flown Route
Filed Route
Departure Airport
Arrival Airport
Navaid (VOR, NDB)
Fix

Horizontal Profiles

Position Reports

Time Latitude Longitude Heading Altitude Ground
Speed
30-Oct-19 15:49 35.236644 -120.636718 123 215ft 0kts
30-Oct-19 15:50 35.236644 -120.636718 123 215ft 0kts
30-Oct-19 15:51 35.236644 -120.636718 123 215ft 0kts
30-Oct-19 15:52 35.236644 -120.636718 123 215ft 0kts
30-Oct-19 15:53 35.236644 -120.636718 123 215ft 0kts
30-Oct-19 15:54 35.236644 -120.636718 123 215ft 0kts
30-Oct-19 15:55 35.236644 -120.636718 123 215ft 0kts
30-Oct-19 15:56 35.236136 -120.636351 192 215ft 0kts
30-Oct-19 15:57 35.233774 -120.632879 130 215ft 21kts
30-Oct-19 15:59 35.233152 -120.631988 308 215ft 0kts
30-Oct-19 16:00 35.233152 -120.631989 307 215ft 0kts
30-Oct-19 16:01 35.233152 -120.631988 308 215ft 0kts
30-Oct-19 16:02 35.233138 -120.632387 212 215ft 0kts
30-Oct-19 16:03 35.233138 -120.632387 212 215ft 0kts
30-Oct-19 16:04 35.233285 -120.633992 298 215ft 45kts
30-Oct-19 16:05 35.246446 -120.656062 291 819ft 80kts
30-Oct-19 16:06 35.228932 -120.651592 131 1662ft 107kts
30-Oct-19 16:07 35.209970 -120.623568 94 2582ft 114kts
30-Oct-19 16:08 35.206530 -120.585384 92 3483ft 114kts
30-Oct-19 16:09 35.203715 -120.546865 88 4249ft 113kts
30-Oct-19 16:10 35.204005 -120.507874 97 4976ft 113kts
30-Oct-19 16:11 35.198462 -120.469375 99 5697ft 114kts
30-Oct-19 16:12 35.191967 -120.428323 97 6280ft 126kts
30-Oct-19 16:13 35.185222 -120.386684 96 7004ft 125kts
30-Oct-19 16:14 35.176906 -120.343604 109 7183ft 157kts
30-Oct-19 16:15 35.162012 -120.297734 97 7499ft 141kts
30-Oct-19 16:16 35.158094 -120.249073 95 7504ft 145kts
30-Oct-19 16:16 35.152812 -120.208763 98 7503ft 143kts
30-Oct-19 16:18 35.143223 -120.153113 99 7502ft 143kts
30-Oct-19 16:19 35.135048 -120.105153 99 7500ft 144kts
30-Oct-19 16:20 35.126759 -120.057032 98 7498ft 144kts
30-Oct-19 16:20 35.119309 -120.016892 98 7494ft 145kts
30-Oct-19 16:22 35.109484 -119.960268 100 7491ft 146kts
30-Oct-19 16:23 35.101456 -119.913687 104 7489ft 136kts
30-Oct-19 16:23 35.095598 -119.875920 103 7488ft 135kts
30-Oct-19 16:24 35.088262 -119.830676 99 7486ft 135kts
30-Oct-19 16:25 35.081563 -119.785268 100 7485ft 136kts
30-Oct-19 16:27 35.066073 -119.735622 122 7490ft 136kts
30-Oct-19 16:27 35.051946 -119.701766 105 7500ft 134kts
30-Oct-19 16:28 35.039268 -119.658889 111 7514ft 134kts
30-Oct-19 16:29 35.027527 -119.615720 109 7524ft 133kts
30-Oct-19 16:30 35.015204 -119.573226 105 7532ft 132kts
30-Oct-19 16:31 35.001984 -119.531051 102 7536ft 132kts
30-Oct-19 16:32 34.989390 -119.488621 107 7537ft 133kts
30-Oct-19 16:33 34.977096 -119.445997 107 7538ft 132kts
30-Oct-19 16:34 34.964573 -119.403153 106 7539ft 132kts
30-Oct-19 16:35 34.952120 -119.360763 106 7543ft 132kts
30-Oct-19 16:36 34.939673 -119.318623 106 7551ft 132kts
30-Oct-19 16:37 34.927259 -119.276350 106 7560ft 133kts
30-Oct-19 16:38 34.914628 -119.233682 106 7560ft 134kts
30-Oct-19 16:39 34.901942 -119.190601 104 7498ft 136kts
30-Oct-19 16:40 34.888067 -119.150658 108 7902ft 123kts
30-Oct-19 16:41 34.874590 -119.112402 106 8340ft 125kts
30-Oct-19 16:42 34.862938 -119.072456 102 8765ft 125kts
30-Oct-19 16:43 34.850759 -119.032089 108 9173ft 128kts
30-Oct-19 16:44 34.837926 -118.991451 110 9536ft 132kts
30-Oct-19 16:45 34.818379 -118.950657 118 9548ft 142kts
30-Oct-19 16:46 34.794516 -118.911836 125 9568ft 143kts
30-Oct-19 16:47 34.808497 -118.877862 55 9589ft 131kts
30-Oct-19 16:48 34.821381 -118.836382 66 9613ft 131kts
30-Oct-19 16:49 34.835894 -118.795413 67 9636ft 132kts
30-Oct-19 16:50 34.850431 -118.754145 67 9638ft 132kts
30-Oct-19 16:51 34.865005 -118.712797 67 9631ft 133kts
30-Oct-19 16:52 34.879792 -118.669160 68 9184ft 141kts
30-Oct-19 16:53 34.893828 -118.622023 80 7998ft 133kts
30-Oct-19 16:54 34.903327 -118.579801 81 7471ft 124kts
30-Oct-19 16:55 34.911938 -118.537514 76 6837ft 124kts
30-Oct-19 16:56 34.931959 -118.503283 45 6293ft 125kts
30-Oct-19 16:57 34.950322 -118.466124 71 5539ft 126kts
30-Oct-19 16:58 34.962386 -118.432368 80 5509ft 102kts
30-Oct-19 16:59 34.970763 -118.398137 78 5341ft 115kts
30-Oct-19 17:00 34.979585 -118.360402 61 5222ft 119kts
30-Oct-19 17:01 34.993049 -118.327525 63 5570ft 104kts
30-Oct-19 17:02 35.007983 -118.295157 60 5646ft 118kts
30-Oct-19 17:03 35.012766 -118.261016 147 5735ft 121kts
30-Oct-19 17:04 34.986601 -118.287145 288 5377ft 162kts
30-Oct-19 17:05 35.000648 -118.275438 139 5080ft 128kts
30-Oct-19 17:06 34.976970 -118.298005 298 4750ft 160kts
30-Oct-19 17:07 35.006886 -118.306629 36 5361ft 119kts
30-Oct-19 17:08 35.040303 -118.287711 20 5105ft 139kts
30-Oct-19 17:09 35.075541 -118.273704 30 5279ft 128kts
30-Oct-19 17:10 35.093113 -118.240123 70 5329ft 123kts
30-Oct-19 17:11 35.100156 -118.201439 103 5405ft 125kts
30-Oct-19 17:12 35.080151 -118.175596 119 3524ft 68kts
30-Oct-19 17:13 35.066886 -118.157751 125 2804ft 68kts
30-Oct-19 17:14 35.059793 -118.149074 136 2749ft 22kts
30-Oct-19 17:15 35.057581 -118.151073 268 2747ft 14kts
30-Oct-19 17:16 35.056988 -118.151761 70 2749ft 0kts
30-Oct-19 17:17 35.056988 -118.151761 70 2749ft 0kts
30-Oct-19 17:18 35.056988 -118.151761 70 2749ft 0kts
30-Oct-19 17:19 35.056988 -118.151761 70 2749ft 0kts
30-Oct-19 17:20 35.056988 -118.151761 70 2749ft 0kts
30-Oct-19 17:21 35.056988 -118.151761 70 2749ft 0kts
30-Oct-19 17:22 35.056988 -118.151761 70 2749ft 0kts
30-Oct-19 17:23 35.056988 -118.151761 70 2749ft 0kts

Navigation Log

Ident Type
Flight plan parsing failed, navigation log unavailable